** WELKOM OP ONZE WEBSITE MET ACTUELE WEERDATA VANUIT IZEGEM **
Het weer levert geen direct gevaar op.    Er zijn geen waarschuwingen afgegeven.

Weercam te Izegem Meer informatie Weercam te Izegem


Lokaal brand risico:
FWI


Regionaal brand risico: Meer informatie


Steun ons initiatief via een kleine donatie!



METAR rapporten vliegvelden

   
EBOS - Oostende Airport, Belgium
Afstand tot: NW 39 km
Gewijzigd: 24-08-2019 08:50
Gedeeltelijk bewolkt  
Gedeeltelijk bewolkt  
   Wind: OZO 9.3 km/h
Wind: OZO 9.3 km/h
Temperatuur: 17°C
Dauwpunt: 13°C
Vochtigheid: 77%
Barometer: 1021 hPa
Bewolking: Partly Cloudy
Zicht: 9 km
Bewolking: Gedeeltelijk bewolkt ft
EBOS 240650Z 11005KT 9000 NSC 17/13 Q1021 NOSIG
LFQQ - Lille/Lesquin, France
Afstand tot: Z 40 km
Gewijzigd: 24-08-2019 09:00
Gedeeltelijk bewolkt  
Gedeeltelijk bewolkt  
   Wind: varieert 5.6 km/h
Wind: varieert 5.6 km/h
Temperatuur: 18°C
Dauwpunt: 13°C
Vochtigheid: 73%
Barometer: 1020 hPa
Bewolking: Partly Cloudy
Zicht: 9 km
Bewolking: Gedeeltelijk bewolkt ft
LFQQ 240700Z AUTO VRB03KT 9000 NSC 18/13 Q1020 NOSIG
EBFN - Koksijde (bel-Af, Belgium
Afstand tot: WNW 43 km
Gewijzigd: 24-08-2019 08:55
Nevel, Helder  
Nevel, Helder  
   Wind: OZO 7.4 km/h
Wind: OZO 7.4 km/h
Temperatuur: 17°C
Dauwpunt: 14°C
Vochtigheid: 83%
Barometer: 1020 hPa
Bewolking: Clear
Zicht: 4 km
Bewolking: Helder ft
EBFN 240655Z AUTO 11004KT 4100 BR NCD 17/14 Q1020 GRN
EBCV - Chievres Ab, Belgium
Afstand tot: ZO 59 km
Gewijzigd: 24-08-2019 08:55
Helder  
Helder  
   Wind: varieert 3.7 km/h
Wind: varieert 3.7 km/h
Temperatuur: 18°C
Dauwpunt: 14°C
Vochtigheid: 78%
Barometer: 1021 hPa
Bewolking: Clear
Zicht: 8 km
Bewolking: Helder ft
EBCV 240655Z AUTO VRB02KT 8000 NCD 18/14 Q1021 BLU
EHFS - Vlissingen, Netherlands
Afstand tot: NNO 65 km
Gewijzigd: 24-08-2019 08:55
Helder  
Helder  
   Wind: Oosten 14.8 km/h
Wind: Oosten 14.8 km/h
Temperatuur: 19°C
Dauwpunt: 14°C
Vochtigheid: 73%
Barometer: 1020 hPa
Bewolking: Clear
Zicht: meer dan 10 km
Bewolking: Helder ft
EHFS 240655Z AUTO 10008KT 9999 NCD 19/14 Q1020 W///H///
EBBR - Brussels Nationa, Belgium
Afstand tot: O 91 km
Gewijzigd: 24-08-2019 08:50
Helder  
Helder  
   Wind: Kalm
Wind: Kalm
Temperatuur: 19°C
Dauwpunt: 15°C
Vochtigheid: 78%
Barometer: 1021 hPa
Zicht: meer dan 10 km
Bewolking: Helder ft
EBBR 240650Z 00000KT CAVOK 19/15 Q1021 NOSIG
EBAW - Antwerp/Deurne, Belgium
Afstand tot: ONO 94 km
Gewijzigd: 24-08-2019 08:50
Helder  
Helder  
   Wind: Oosten 5.6 km/h
Wind: Oosten 5.6 km/h
Temperatuur: 17°C
Dauwpunt: 13°C
Vochtigheid: 77%
Barometer: 1021 hPa
Zicht: meer dan 10 km
Bewolking: Helder ft
EBAW 240650Z 10003KT CAVOK 17/13 Q1021 NOSIG
EHWO - Woensdrecht Rnla, Netherlands
Afstand tot: NO 98 km
Gewijzigd: 24-08-2019 08:55
Helder  
Helder  
   Wind: Oosten 7.4 km/h
Wind: Oosten 7.4 km/h
Temperatuur: 17°C
Dauwpunt: 13°C
Vochtigheid: 77%
Barometer: 1020 hPa
Bewolking: Clear
Zicht: meer dan 10 km
Bewolking: Helder ft
EHWO 240655Z AUTO 08004KT 050V140 9999 NCD 17/13 Q1020 BLU
EBCI - Charleroi/Gossel, Belgium
Afstand tot: OZO 102 km
Gewijzigd: 24-08-2019 08:50
Helder  
Helder  
   Wind: varieert 1.9 km/h
Wind: varieert 1.9 km/h
Temperatuur: 18°C
Dauwpunt: 12°C
Vochtigheid: 68%
Barometer: 1021 hPa
Zicht: meer dan 10 km
Bewolking: Helder ft
EBCI 240650Z VRB01KT CAVOK 18/12 Q1021 NOSIG

Script ontwikkeld door  Saratoga-weather.org Aangepast voor de template door  Weerstation Leuven